Time;durP1;ratioP1;P1;durP2;ratioP2;P2;SDS_P1;SDS_P2;PMS_P1;PMS_P2;Temp;Humidity;BMP_temperature;BMP_pressure;BME280_temperature;BME280_humidity;BME280_pressure;Samples;Min_cycle;Max_cycle;Signal;HPM_P1;HPM_P2
2022/02/01 00:02:38;;;;;;;24.55;3.03;;;4.80;84.90;;;;;;9180830;19;20007;-68
2022/02/01 00:05:55;;;;;;;33.58;4.80;;;4.70;84.90;;;;;;9176535;19;20055;-70
2022/02/01 00:09:10;;;;;;;17.67;3.00;;;4.70;85.10;;;;;;9177907;19;20014;-67
2022/02/01 00:12:23;;;;;;;27.73;4.68;;;4.70;84.90;;;;;;9177246;19;20021;-68
2022/02/01 00:16:03;;;;;;;34.50;4.13;;;4.70;85.00;;;;;;9175745;19;20074;-67
2022/02/01 00:19:24;;;;;;;21.27;3.42;;;4.60;85.00;;;;;;9171977;19;20014;-67
2022/02/01 00:35:46;;;;;;;27.73;3.70;;;4.50;85.10;;;;;;9174648;19;20054;-67
2022/02/01 00:38:56;;;;;;;17.55;2.97;;;4.50;85.10;;;;;;9176418;19;20500;-67
2022/02/01 00:42:04;;;;;;;20.10;2.75;;;4.50;85.10;;;;;;9175245;19;20018;-68
2022/02/01 00:45:10;;;;;;;28.83;4.38;;;4.50;85.10;;;;;;9178122;19;20018;-67
2022/02/01 00:48:15;;;;;;;21.02;3.10;;;4.50;85.10;;;;;;9174911;19;20018;-67
2022/02/01 00:51:20;;;;;;;20.30;2.85;;;4.50;85.10;;;;;;9175573;19;20019;-67
2022/02/01 00:54:25;;;;;;;15.00;2.88;;;4.50;85.10;;;;;;9175707;19;20018;-68
2022/02/01 00:57:32;;;;;;;15.18;3.72;;;4.60;85.20;;;;;;9175965;19;20026;-67
2022/02/01 01:00:38;;;;;;;30.73;4.45;;;4.60;85.20;;;;;;9177383;19;20014;-67
2022/02/01 01:03:44;;;;;;;21.67;3.28;;;4.60;85.20;;;;;;9170686;19;20018;-67
2022/02/01 01:06:49;;;;;;;20.77;3.00;;;4.60;85.20;;;;;;9173251;19;20506;-68
2022/02/01 01:09:56;;;;;;;11.38;2.63;;;4.60;85.20;;;;;;9174928;19;20400;-67
2022/02/01 01:13:14;;;;;;;22.33;3.03;;;4.60;85.20;;;;;;9176088;19;20018;-68
2022/02/01 01:16:37;;;;;;;18.65;2.88;;;4.60;85.30;;;;;;9175350;19;20482;-67
2022/02/01 01:52:58;;;;;;;25.02;2.17;;;4.80;85.50;;;;;;9181284;19;20503;-67
2022/02/01 01:53:22;;;;;;;15.98;2.50;;;4.80;85.50;;;;;;9179479;19;20017;-67
2022/02/01 01:56:27;;;;;;;19.70;2.58;;;4.80;85.50;;;;;;9182924;19;20472;-67
2022/02/01 01:59:32;;;;;;;11.88;1.85;;;4.80;85.50;;;;;;9180638;19;20489;-66
2022/02/01 02:02:39;;;;;;;17.33;2.67;;;4.90;85.50;;;;;;9181326;19;20395;-67
2022/02/01 02:05:45;;;;;;;21.85;3.92;;;4.90;85.60;;;;;;9179398;19;20077;-67
2022/02/01 02:08:53;;;;;;;15.98;2.40;;;4.90;85.60;;;;;;9179746;19;20506;-67
2022/02/01 02:12:08;;;;;;;14.60;2.63;;;4.90;85.60;;;;;;9182852;19;20092;-67
2022/02/01 02:15:13;;;;;;;20.80;2.50;;;4.90;85.60;;;;;;9182015;19;20022;-66
2022/02/01 02:18:23;;;;;;;18.15;2.67;;;4.90;85.70;;;;;;9175685;19;20018;-67
2022/02/01 02:21:31;;;;;;;10.95;2.03;;;4.90;85.70;;;;;;9180307;19;20014;-68
2022/02/01 02:24:38;;;;;;;19.33;2.13;;;4.90;85.60;;;;;;9179683;19;20018;-67
2022/02/01 02:27:44;;;;;;;15.70;2.60;;;5.00;85.70;;;;;;9180837;19;20346;-67
2022/02/01 02:30:51;;;;;;;14.45;2.58;;;5.00;85.70;;;;;;9182973;19;20094;-67
2022/02/01 02:34:03;;;;;;;17.85;2.67;;;5.00;85.70;;;;;;9179389;19;20409;-67
2022/02/01 02:37:16;;;;;;;12.60;2.38;;;5.00;85.70;;;;;;9179838;19;20033;-67
2022/02/01 02:40:41;;;;;;;11.60;2.25;;;5.00;85.70;;;;;;9179616;19;20876;-67
2022/02/01 02:47:04;;;;;;;13.75;2.55;;;5.00;85.70;;;;;;9180376;19;20441;-67
2022/02/01 02:50:10;;;;;;;14.65;2.25;;;5.00;85.70;;;;;;9176175;19;20022;-67
2022/02/01 02:53:18;;;;;;;12.25;2.25;;;5.00;85.80;;;;;;9177857;19;20090;-67
2022/02/01 02:56:23;;;;;;;14.02;2.65;;;5.00;85.80;;;;;;9180579;19;20053;-67
2022/02/01 02:59:30;;;;;;;12.93;2.10;;;5.00;85.70;;;;;;9179408;19;20554;-67
2022/02/01 03:02:35;;;;;;;14.80;2.67;;;5.00;85.80;;;;;;9180927;19;20038;-67
2022/02/01 03:05:40;;;;;;;9.05;1.80;;;5.00;85.80;;;;;;9179061;19;20017;-67
2022/02/01 03:08:47;;;;;;;15.68;2.28;;;5.00;85.80;;;;;;9177606;19;20372;-67
2022/02/01 03:11:55;;;;;;;16.23;2.33;;;5.00;85.80;;;;;;9181828;19;20014;-67
2022/02/01 03:15:20;;;;;;;17.50;2.97;;;5.10;85.90;;;;;;9181729;19;20014;-67
2022/02/01 03:21:42;;;;;;;10.93;2.00;;;5.10;85.90;;;;;;9180638;19;20007;-68
2022/02/01 03:24:50;;;;;;;10.13;1.88;;;5.10;85.90;;;;;;9177340;19;20030;-68
2022/02/01 03:27:55;;;;;;;14.88;1.90;;;5.00;85.80;;;;;;9176755;19;20478;-67
2022/02/01 03:31:00;;;;;;;14.60;1.60;;;5.10;85.90;;;;;;9178884;19;20479;-67
2022/02/01 03:34:05;;;;;;;13.30;2.30;;;5.10;85.90;;;;;;9178698;19;20018;-67
2022/02/01 03:37:11;;;;;;;16.98;2.03;;;5.10;85.90;;;;;;9180117;19;20400;-67
2022/02/01 03:40:20;;;;;;;17.25;2.35;;;5.10;85.90;;;;;;9177210;19;20480;-67
2022/02/01 03:43:25;;;;;;;9.93;1.63;;;5.10;85.90;;;;;;9176950;19;20014;-67
2022/02/01 03:46:30;;;;;;;16.70;2.17;;;5.10;85.90;;;;;;9178835;19;20053;-67
2022/02/01 03:49:38;;;;;;;11.75;1.50;;;5.10;85.90;;;;;;9178092;19;20475;-67
2022/02/01 03:52:43;;;;;;;11.82;2.15;;;5.10;85.90;;;;;;9178136;19;20024;-68
2022/02/01 03:55:50;;;;;;;13.10;2.38;;;5.10;85.90;;;;;;9177105;19;20029;-67
2022/02/01 03:58:55;;;;;;;12.25;1.90;;;5.10;86.00;;;;;;9174331;19;20032;-67
2022/02/01 04:02:02;;;;;;;9.93;1.73;;;5.10;86.00;;;;;;9176372;19;20022;-67
2022/02/01 04:05:08;;;;;;;8.93;1.55;;;5.10;86.00;;;;;;9178985;19;20165;-67
2022/02/01 04:08:15;;;;;;;10.52;1.50;;;5.10;86.00;;;;;;9176652;19;20018;-68
2022/02/01 04:11:23;;;;;;;10.43;1.45;;;5.10;86.00;;;;;;9174779;19;20025;-67
2022/02/01 04:14:30;;;;;;;16.67;3.35;;;5.10;86.00;;;;;;9176155;19;20014;-67
2022/02/01 04:17:37;;;;;;;11.40;1.70;;;5.10;85.90;;;;;;9173387;19;20379;-67
2022/02/01 04:20:43;;;;;;;15.98;2.20;;;5.10;85.90;;;;;;9177267;19;20018;-67
2022/02/01 04:23:48;;;;;;;7.60;1.60;;;5.10;86.00;;;;;;9176519;19;20094;-68
2022/02/01 04:26:55;;;;;;;11.27;1.83;;;5.20;86.00;;;;;;9174246;19;20048;-68
2022/02/01 04:30:11;;;;;;;10.63;1.40;;;5.20;86.00;;;;;;9175245;19;20026;-67
2022/02/01 04:33:16;;;;;;;12.45;1.55;;;5.10;86.00;;;;;;9176995;19;20022;-67
2022/02/01 04:36:21;;;;;;;7.85;1.65;;;5.20;86.00;;;;;;9176966;19;20362;-67
2022/02/01 04:39:26;;;;;;;10.80;1.67;;;5.20;86.00;;;;;;9178676;19;20018;-67
2022/02/01 04:42:36;;;;;;;5.57;1.33;;;5.20;86.00;;;;;;9175517;19;20010;-67
2022/02/01 04:45:42;;;;;;;11.20;1.77;;;5.20;86.10;;;;;;9173715;19;20019;-67
2022/02/01 04:48:47;;;;;;;11.75;1.92;;;5.20;86.00;;;;;;9175032;19;20345;-67
2022/02/01 04:51:52;;;;;;;12.48;1.65;;;5.20;86.00;;;;;;9177647;19;20018;-68
2022/02/01 04:54:57;;;;;;;9.40;2.28;;;5.20;86.00;;;;;;9175953;19;20022;-67
2022/02/01 04:58:05;;;;;;;8.98;1.63;;;5.20;86.00;;;;;;9173268;19;20023;-67
2022/02/01 05:01:12;;;;;;;12.73;1.77;;;5.20;86.00;;;;;;9172751;19;20835;-67
2022/02/01 05:04:19;;;;;;;10.82;1.70;;;5.20;86.00;;;;;;9173062;19;20306;-67
2022/02/01 05:07:24;;;;;;;12.32;1.42;;;5.20;86.00;;;;;;9174446;19;20024;-67
2022/02/01 05:10:32;;;;;;;6.35;1.60;;;5.20;86.00;;;;;;9173357;19;20415;-68
2022/02/01 05:14:04;;;;;;;11.40;1.65;;;5.20;86.00;;;;;;9174060;19;20014;-66
2022/02/01 05:17:09;;;;;;;8.63;2.00;;;5.20;86.00;;;;;;9175288;19;20365;-67
2022/02/01 05:20:44;;;;;;;11.38;1.33;;;5.20;85.90;;;;;;9182635;19;20010;-68
2022/02/01 05:23:49;;;;;;;9.93;1.70;;;5.20;86.00;;;;;;9180776;19;20044;-67
2022/02/01 05:26:56;;;;;;;9.43;2.25;;;5.20;86.00;;;;;;9182334;19;20014;-67
2022/02/01 05:30:05;;;;;;;10.43;1.77;;;5.20;86.00;;;;;;9186068;19;20466;-66
2022/02/01 05:33:10;;;;;;;14.88;2.28;;;5.20;86.00;;;;;;9185270;19;20010;-67
2022/02/01 05:36:15;;;;;;;17.80;2.35;;;5.20;86.80;;;;;;9179392;19;20015;-67
2022/02/01 05:39:21;;;;;;;17.27;1.85;;;5.20;86.60;;;;;;9182253;19;20010;-66
2022/02/01 05:42:37;;;;;;;12.05;2.13;;;5.20;86.10;;;;;;9182128;19;20023;-67
2022/02/01 05:45:46;;;;;;;12.68;2.35;;;5.20;86.10;;;;;;9182037;19;20025;-67
2022/02/01 05:48:52;;;;;;;9.27;1.77;;;5.30;86.10;;;;;;9183083;19;20497;-67
2022/02/01 05:51:57;;;;;;;12.45;2.10;;;5.30;86.00;;;;;;9181313;19;20918;-68
2022/02/01 05:55:02;;;;;;;8.70;1.77;;;5.30;86.00;;;;;;9182670;19;20102;-67
2022/02/01 05:58:07;;;;;;;8.00;1.70;;;5.30;86.00;;;;;;9183472;19;20489;-67
2022/02/01 06:01:18;;;;;;;20.70;3.05;;;5.30;86.00;;;;;;9181108;19;20911;-67
2022/02/01 06:04:23;;;;;;;13.13;2.00;;;5.30;86.00;;;;;;9184344;19;20029;-67
2022/02/01 06:07:28;;;;;;;12.32;2.15;;;5.30;86.00;;;;;;9180421;19;20062;-67
2022/02/01 06:10:34;;;;;;;12.07;1.73;;;5.30;86.00;;;;;;9180826;19;20074;-67
2022/02/01 06:13:39;;;;;;;14.85;1.70;;;5.30;86.00;;;;;;9180238;19;20613;-67
2022/02/01 06:16:47;;;;;;;21.00;2.10;;;5.30;86.00;;;;;;9184041;19;20373;-67
2022/02/01 06:19:52;;;;;;;11.02;1.58;;;5.30;86.00;;;;;;9182094;19;20058;-68
2022/02/01 06:22:57;;;;;;;15.57;2.80;;;5.30;86.00;;;;;;9179365;19;20022;-67
2022/02/01 06:26:02;;;;;;;10.15;1.95;;;5.30;86.10;;;;;;9177975;19;20039;-68
2022/02/01 06:29:07;;;;;;;9.20;1.77;;;5.30;86.10;;;;;;9178607;19;20010;-67
2022/02/01 06:32:14;;;;;;;11.05;2.60;;;5.30;86.00;;;;;;9180592;19;20515;-67
2022/02/01 06:35:19;;;;;;;22.13;2.08;;;5.30;86.00;;;;;;9182068;19;20494;-67
2022/02/01 06:38:25;;;;;;;13.63;1.88;;;5.30;86.00;;;;;;9177542;19;20021;-68
2022/02/01 06:41:30;;;;;;;15.43;3.33;;;5.30;86.00;;;;;;9179694;19;20018;-67
2022/02/01 06:44:36;;;;;;;9.25;1.75;;;5.30;86.10;;;;;;9182811;19;20022;-67
2022/02/01 06:47:43;;;;;;;10.27;1.88;;;5.30;86.00;;;;;;9181197;19;20471;-67
2022/02/01 06:50:48;;;;;;;10.80;2.42;;;5.30;86.10;;;;;;9182224;19;20022;-67
2022/02/01 06:53:55;;;;;;;8.45;2.13;;;5.30;86.10;;;;;;9178227;19;20022;-67
2022/02/01 06:57:00;;;;;;;13.32;2.67;;;5.40;86.10;;;;;;9178266;19;20996;-67
2022/02/01 07:00:11;;;;;;;13.98;2.55;;;5.30;86.10;;;;;;9178916;19;20077;-67
2022/02/01 07:03:19;;;;;;;16.52;2.17;;;5.40;86.20;;;;;;9180115;19;20014;-67
2022/02/01 07:06:24;;;;;;;12.15;2.45;;;5.40;86.10;;;;;;9181720;19;20047;-67
2022/02/01 07:09:32;;;;;;;8.70;2.35;;;5.40;86.10;;;;;;9178858;19;20476;-67
2022/02/01 07:12:37;;;;;;;9.95;2.53;;;5.40;86.10;;;;;;9173161;19;20018;-68
2022/02/01 07:15:42;;;;;;;11.10;2.17;;;5.40;86.10;;;;;;9170913;19;20018;-67
2022/02/01 07:18:50;;;;;;;14.27;2.42;;;5.40;86.10;;;;;;9169174;19;20025;-68
2022/02/01 07:21:56;;;;;;;15.68;2.38;;;5.40;86.10;;;;;;9171328;19;20495;-67
2022/02/01 07:25:12;;;;;;;13.30;3.03;;;5.40;86.10;;;;;;9170345;19;20014;-67
2022/02/01 07:28:19;;;;;;;14.57;3.47;;;5.50;86.20;;;;;;9173151;19;20014;-67
2022/02/01 07:31:24;;;;;;;10.82;2.53;;;5.50;86.20;;;;;;9172511;19;20491;-67
2022/02/01 07:34:33;;;;;;;18.80;3.72;;;5.50;86.20;;;;;;9174909;19;20025;-67
2022/02/01 07:37:42;;;;;;;12.55;2.33;;;5.50;86.20;;;;;;9176741;19;20018;-67
2022/02/01 07:40:47;;;;;;;22.63;3.53;;;5.50;86.20;;;;;;9174493;19;20014;-67
2022/02/01 07:43:53;;;;;;;16.88;2.53;;;5.50;86.20;;;;;;9174655;19;20030;-67
2022/02/01 07:46:58;;;;;;;12.88;2.88;;;5.50;86.20;;;;;;9177649;19;20357;-67
2022/02/01 07:50:07;;;;;;;10.35;2.80;;;5.60;86.30;;;;;;9177972;19;20081;-67
2022/02/01 07:53:13;;;;;;;18.50;3.50;;;5.60;86.30;;;;;;9175894;19;20010;-67
2022/02/01 07:56:18;;;;;;;14.75;3.60;;;5.60;86.40;;;;;;9179047;19;20010;-67
2022/02/01 07:59:23;;;;;;;17.83;3.22;;;5.60;86.40;;;;;;9176122;19;20053;-67
2022/02/01 08:02:28;;;;;;;13.98;3.60;;;5.60;86.40;;;;;;9176857;19;20460;-67
2022/02/01 08:05:56;;;;;;;14.00;4.20;;;5.60;86.40;;;;;;9178772;19;20360;-68
2022/02/01 08:09:09;;;;;;;12.82;3.88;;;5.70;86.50;;;;;;9178590;19;20051;-67
2022/02/01 08:12:35;;;;;;;12.00;4.10;;;5.60;86.40;;;;;;9179222;19;20022;-68
2022/02/01 08:19:23;;;;;;;11.02;4.07;;;5.70;86.50;;;;;;9167533;19;20030;-67
2022/02/01 08:22:38;;;;;;;13.68;4.63;;;5.70;86.60;;;;;;9176990;19;20011;-67
2022/02/01 08:25:43;;;;;;;16.40;4.50;;;5.70;86.60;;;;;;9177390;19;20488;-67
2022/02/01 08:28:48;;;;;;;24.80;5.15;;;5.70;87.20;;;;;;9179020;19;20026;-67
2022/02/01 08:32:13;;;;;;;23.42;4.55;;;5.70;86.70;;;;;;9178692;19;20045;-67
2022/02/01 08:35:19;;;;;;;14.43;4.47;;;5.80;86.80;;;;;;9179952;19;20006;-67
2022/02/01 08:38:46;;;;;;;12.13;3.95;;;5.80;86.80;;;;;;9176168;19;20082;-68
2022/02/01 08:41:51;;;;;;;16.15;4.43;;;5.80;86.80;;;;;;9173051;19;20104;-67
2022/02/01 08:44:56;;;;;;;16.50;4.28;;;5.80;86.90;;;;;;9176172;19;20025;-67
2022/02/01 08:48:02;;;;;;;12.13;4.65;;;5.80;86.90;;;;;;9175040;19;20038;-67
2022/02/01 08:51:10;;;;;;;17.20;4.28;;;5.90;87.00;;;;;;9176673;19;20042;-68
2022/02/01 08:54:21;;;;;;;10.88;4.40;;;5.90;87.00;;;;;;9174365;19;20853;-67
2022/02/01 08:57:29;;;;;;;14.80;5.32;;;5.90;87.10;;;;;;9169775;19;20019;-67
2022/02/01 09:00:37;;;;;;;13.30;5.55;;;5.90;87.10;;;;;;9172856;19;20044;-67
2022/02/01 09:03:42;;;;;;;14.73;7.30;;;5.90;87.10;;;;;;9170155;19;20014;-67
2022/02/01 09:06:48;;;;;;;15.13;7.70;;;5.90;87.10;;;;;;9175234;19;20022;-67
2022/02/01 09:09:56;;;;;;;18.58;8.70;;;5.90;87.10;;;;;;9169842;19;20019;-67
2022/02/01 09:13:02;;;;;;;16.77;7.57;;;5.90;87.20;;;;;;9168006;19;20519;-68
2022/02/01 09:16:08;;;;;;;17.40;7.10;;;6.00;87.20;;;;;;9170679;19;20022;-67
2022/02/01 09:19:14;;;;;;;15.88;6.47;;;6.00;87.30;;;;;;9166742;19;20018;-67
2022/02/01 09:22:19;;;;;;;12.25;6.78;;;6.00;87.30;;;;;;9169990;19;20030;-67
2022/02/01 09:25:28;;;;;;;12.77;6.50;;;6.00;87.40;;;;;;9172256;19;20536;-67
2022/02/01 09:28:33;;;;;;;11.45;7.15;;;6.10;87.50;;;;;;9171688;19;20010;-67
2022/02/01 09:31:38;;;;;;;15.43;8.18;;;6.10;87.50;;;;;;9169413;19;20360;-67
2022/02/01 09:34:43;;;;;;;15.90;8.20;;;6.10;87.50;;;;;;9172712;19;20015;-68
2022/02/01 09:37:48;;;;;;;12.40;7.82;;;6.10;87.60;;;;;;9172537;19;20472;-67
2022/02/01 09:41:16;;;;;;;12.32;7.15;;;6.10;87.60;;;;;;9168237;19;20011;-67
2022/02/01 09:44:23;;;;;;;11.82;7.05;;;6.10;87.60;;;;;;9156717;19;20015;-66
2022/02/01 09:47:35;;;;;;;11.55;6.70;;;6.10;87.60;;;;;;9167711;19;20021;-66
2022/02/01 09:50:41;;;;;;;12.45;6.10;;;6.20;87.80;;;;;;9167826;19;20014;-66
2022/02/01 09:53:46;;;;;;;9.88;5.80;;;6.20;87.70;;;;;;9171077;19;20028;-67
2022/02/01 09:56:55;;;;;;;13.00;6.03;;;6.20;87.80;;;;;;9172727;19;20025;-67
2022/02/01 10:00:03;;;;;;;10.00;6.13;;;6.20;88.40;;;;;;9168840;19;20023;-66
2022/02/01 10:03:28;;;;;;;9.52;5.95;;;6.30;87.90;;;;;;9180036;19;20599;-67
2022/02/01 10:06:34;;;;;;;7.63;5.63;;;6.30;87.90;;;;;;9176422;19;20011;-68
2022/02/01 10:10:01;;;;;;;8.48;5.55;;;6.30;88.00;;;;;;9177773;19;20087;-66
2022/02/01 10:13:17;;;;;;;9.63;5.78;;;6.30;88.00;;;;;;9179494;19;20019;-66
2022/02/01 10:16:30;;;;;;;9.50;5.65;;;6.30;88.00;;;;;;9180799;19;20052;-66
2022/02/01 10:19:37;;;;;;;7.60;5.03;;;6.40;88.10;;;;;;9176201;19;20014;-66
2022/02/01 10:22:44;;;;;;;9.75;5.30;;;6.40;88.20;;;;;;9177001;19;20029;-66
2022/02/01 10:26:04;;;;;;;6.28;4.78;;;6.40;88.20;;;;;;9179031;19;20014;-66
2022/02/01 10:29:19;;;;;;;7.68;4.90;;;6.50;88.30;;;;;;9176891;19;20117;-66
2022/02/01 10:32:34;;;;;;;6.18;4.78;;;6.50;88.30;;;;;;9174746;19;20018;-66
2022/02/01 10:35:55;;;;;;;;;;;6.50;88.30;;;;;;9180466;19;20041;-66
2022/02/01 10:39:01;;;;;;;6.50;4.28;;;6.60;88.30;;;;;;9180108;19;19915;-66
2022/02/01 10:42:11;;;;;;;4.82;3.70;;;6.60;88.20;;;;;;9176270;19;20023;-66
2022/02/01 10:45:18;;;;;;;5.20;3.83;;;6.60;88.30;;;;;;9176340;19;20023;-66
2022/02/01 10:48:25;;;;;;;6.45;4.28;;;6.70;88.40;;;;;;9178434;19;20011;-66
2022/02/01 10:51:30;;;;;;;5.22;3.95;;;6.70;88.50;;;;;;9180618;19;20043;-66
2022/02/01 10:54:35;;;;;;;5.32;3.65;;;6.70;88.50;;;;;;9180144;19;20757;-65
2022/02/01 10:57:49;;;;;;;4.63;3.60;;;6.80;88.60;;;;;;9174621;19;20018;-66
2022/02/01 11:00:56;;;;;;;5.43;3.35;;;6.80;88.60;;;;;;9175868;19;20539;-66
2022/02/01 11:04:04;;;;;;;3.10;2.65;;;6.80;88.60;;;;;;9177246;19;20919;-65
2022/02/01 11:07:10;;;;;;;4.20;3.28;;;6.90;88.70;;;;;;9177069;19;20029;-66
2022/02/01 11:10:15;;;;;;;2.97;2.67;;;6.90;88.70;;;;;;9175411;19;20468;-66
2022/02/01 11:13:21;;;;;;;3.40;2.80;;;7.00;88.80;;;;;;9175422;19;20018;-66
2022/02/01 11:16:29;;;;;;;3.38;2.60;;;7.00;88.80;;;;;;9175179;19;20689;-66
2022/02/01 11:19:35;;;;;;;3.22;2.28;;;7.00;88.90;;;;;;9171097;19;20010;-66
2022/02/01 11:22:42;;;;;;;2.63;2.05;;;7.10;88.90;;;;;;9178173;19;20022;-66
2022/02/01 11:25:51;;;;;;;2.60;2.05;;;7.10;89.00;;;;;;9176493;19;20019;-67
2022/02/01 11:29:15;;;;;;;2.60;2.10;;;7.20;89.00;;;;;;9177748;19;20361;-67
2022/02/01 11:32:22;;;;;;;1.88;1.70;;;7.20;89.10;;;;;;9173964;19;20019;-66
2022/02/01 11:35:48;;;;;;;2.10;1.90;;;7.30;89.10;;;;;;9172339;19;20058;-66
2022/02/01 11:38:55;;;;;;;2.00;1.65;;;7.30;89.10;;;;;;9175410;19;20024;-66
2022/02/01 11:42:01;;;;;;;1.73;1.63;;;7.40;89.20;;;;;;9176805;19;20019;-66
2022/02/01 11:45:08;;;;;;;2.83;1.75;;;7.40;89.20;;;;;;9175904;19;20014;-66
2022/02/01 11:48:24;;;;;;;1.83;1.60;;;7.40;89.30;;;;;;9175844;19;20023;-66
2022/02/01 11:51:31;;;;;;;1.65;1.52;;;7.50;89.40;;;;;;9172421;19;20028;-67
2022/02/01 11:54:37;;;;;;;1.25;1.15;;;7.50;89.30;;;;;;9171553;19;20025;-67
2022/02/01 11:57:46;;;;;;;1.42;1.30;;;7.60;89.50;;;;;;9175009;19;20022;-68
2022/02/01 12:00:51;;;;;;;1.80;1.40;;;7.60;89.40;;;;;;9176053;19;20030;-68
2022/02/01 12:04:10;;;;;;;1.50;1.40;;;7.60;89.50;;;;;;9172271;19;20051;-67
2022/02/01 12:07:22;;;;;;;1.90;1.42;;;7.70;89.60;;;;;;9176315;19;20482;-68
2022/02/01 12:10:27;;;;;;;2.20;1.20;;;7.80;89.60;;;;;;9169878;19;20021;-67
2022/02/01 12:13:35;;;;;;;1.83;1.23;;;7.80;89.60;;;;;;9173646;19;20011;-67
2022/02/01 12:16:47;;;;;;;1.38;1.20;;;7.80;89.70;;;;;;9173106;19;20475;-67
2022/02/01 12:20:04;;;;;;;1.38;1.27;;;7.90;89.80;;;;;;9178120;19;20017;-67
2022/02/01 12:23:24;;;;;;;0.90;0.90;;;7.90;89.80;;;;;;9170568;19;20924;-67
2022/02/01 12:26:32;;;;;;;2.38;0.98;;;8.00;89.90;;;;;;9168568;19;20021;-67
2022/02/01 12:29:38;;;;;;;1.10;1.00;;;8.10;89.90;;;;;;9165582;19;20014;-67
2022/02/01 12:32:51;;;;;;;0.60;0.60;;;8.10;89.90;;;;;;9165601;19;20023;-67
2022/02/01 12:35:59;;;;;;;1.30;0.90;;;8.10;90.00;;;;;;9168516;19;20018;-68
2022/02/01 12:39:10;;;;;;;0.85;0.77;;;8.20;90.00;;;;;;9170854;19;20488;-67
2022/02/01 12:42:28;;;;;;;0.80;0.70;;;8.30;90.00;;;;;;9169295;19;20488;-67
2022/02/01 12:45:55;;;;;;;2.05;1.35;;;8.30;90.00;;;;;;9165158;19;20029;-67
2022/02/01 12:49:00;;;;;;;0.52;0.52;;;8.40;90.10;;;;;;9167623;19;20483;-67
2022/02/01 12:52:19;;;;;;;1.02;0.47;;;8.50;90.10;;;;;;9166709;19;20022;-68
2022/02/01 12:55:44;;;;;;;0.90;0.50;;;8.50;90.10;;;;;;9169652;19;20532;-67
2022/02/01 12:58:56;;;;;;;0.93;0.73;;;8.60;90.10;;;;;;9168046;19;20443;-68
2022/02/01 13:02:07;;;;;;;0.75;0.65;;;8.60;90.20;;;;;;9167620;19;20030;-67
2022/02/01 13:05:15;;;;;;;0.70;0.70;;;8.60;90.20;;;;;;9166757;19;20015;-67
2022/02/01 13:08:37;;;;;;;1.73;0.90;;;8.70;90.20;;;;;;9167829;19;20030;-68
2022/02/01 13:15:13;;;;;;;1.75;1.25;;;8.80;90.20;;;;;;9168587;19;20042;-67
2022/02/01 13:18:24;;;;;;;3.85;1.63;;;8.90;90.30;;;;;;9165286;19;20761;-68
2022/02/01 13:21:29;;;;;;;3.20;1.50;;;8.90;90.30;;;;;;9163984;19;20025;-67
2022/02/01 13:24:37;;;;;;;1.83;1.45;;;9.00;90.30;;;;;;9164664;19;20475;-70
2022/02/01 13:27:43;;;;;;;4.53;1.50;;;9.00;90.30;;;;;;9163466;19;20392;-69
2022/02/01 13:30:49;;;;;;;4.03;1.60;;;9.00;90.30;;;;;;9163544;19;20390;-68
2022/02/01 13:34:00;;;;;;;4.97;1.65;;;9.10;90.30;;;;;;9164443;19;20019;-69
2022/02/01 13:37:08;;;;;;;3.63;1.50;;;9.10;90.40;;;;;;9173347;19;20022;-68
2022/02/01 13:40:26;;;;;;;6.50;1.85;;;9.10;90.40;;;;;;9176636;19;20060;-69
2022/02/01 13:43:31;;;;;;;6.28;2.00;;;9.20;90.40;;;;;;9176071;19;20026;-68
2022/02/01 13:46:44;;;;;;;9.63;1.70;;;9.20;90.40;;;;;;9171313;19;20468;-68
2022/02/01 13:49:49;;;;;;;7.88;2.00;;;9.20;90.40;;;;;;9170344;19;20023;-68
2022/02/01 13:53:00;;;;;;;5.55;1.80;;;9.30;90.40;;;;;;9174213;19;20082;-67
2022/02/01 13:56:10;;;;;;;6.43;1.50;;;9.30;90.40;;;;;;9176537;19;20022;-68
2022/02/01 13:59:18;;;;;;;11.45;1.65;;;9.30;90.40;;;;;;9175079;19;20490;-68
2022/02/01 14:02:31;;;;;;;10.30;2.08;;;9.30;90.40;;;;;;9170781;19;20785;-67
2022/02/01 14:05:38;;;;;;;8.93;2.30;;;9.40;90.40;;;;;;9173467;19;20035;-68
2022/02/01 14:12:32;;;;;;;3.30;1.48;;;9.40;90.40;;;;;;9173824;19;20480;-69
2022/02/01 14:26:16;;;;;;;11.43;1.77;;;9.40;90.40;;;;;;9174203;19;20027;-68
2022/02/01 14:36:11;;;;;;;8.55;1.85;;;9.50;90.40;;;;;;9169887;19;20101;-69
2022/02/01 14:42:52;;;;;;;15.95;2.08;;;9.50;90.40;;;;;;9170943;19;20049;-73
2022/02/01 14:43:05;;;;;;;14.10;1.98;;;9.50;90.40;;;;;;9171249;19;20025;-69
2022/02/01 14:46:14;;;;;;;8.27;1.65;;;9.50;90.40;;;;;;9172553;19;20022;-69
2022/02/01 14:49:23;;;;;;;10.60;1.77;;;9.60;90.40;;;;;;9175560;19;20048;-68
2022/02/01 14:52:28;;;;;;;9.70;1.83;;;9.60;90.40;;;;;;9172053;19;20049;-68
2022/02/01 14:55:41;;;;;;;8.48;2.03;;;9.60;90.40;;;;;;9171829;19;20025;-68
2022/02/01 15:06:06;;;;;;;15.68;2.97;;;9.70;90.50;;;;;;9172540;19;20022;-68
2022/02/01 15:15:43;;;;;;;10.50;2.65;;;9.60;90.40;;;;;;9168486;19;20022;-69
2022/02/01 15:18:51;;;;;;;19.50;2.28;;;9.60;90.40;;;;;;9167806;19;20015;-69
2022/02/01 15:21:56;;;;;;;9.90;2.38;;;9.70;90.40;;;;;;9170751;19;20022;-69
2022/02/01 15:25:20;;;;;;;;;;;9.70;90.40;;;;;;9173973;19;20011;-69
2022/02/01 15:28:28;;;;;;;17.98;2.85;;;9.70;90.40;;;;;;9173564;19;20268;-70
2022/02/01 15:31:53;;;;;;;17.73;3.08;;;9.70;90.30;;;;;;9178627;19;20039;-68
2022/02/01 15:35:00;;;;;;;10.50;2.30;;;9.70;90.30;;;;;;9173262;19;20448;-68
2022/02/01 15:38:08;;;;;;;11.13;2.40;;;9.70;90.30;;;;;;9173440;19;20013;-69
2022/02/01 15:54:53;;;;;;;15.85;2.35;;;9.70;90.30;;;;;;9178544;19;20048;-69
2022/02/01 15:58:21;;;;;;;16.05;2.95;;;9.70;90.20;;;;;;9173526;19;20070;-68
2022/02/01 16:01:35;;;;;;;13.00;2.45;;;9.70;90.20;;;;;;9176283;19;20021;-69
2022/02/01 16:05:01;;;;;;;19.10;3.40;;;9.70;90.20;;;;;;9175166;19;20017;-69
2022/02/01 16:08:09;;;;;;;16.98;2.45;;;9.70;90.20;;;;;;9176931;19;20360;-69
2022/02/01 16:11:23;;;;;;;16.05;2.92;;;9.70;90.20;;;;;;9176682;19;20051;-69
2022/02/01 16:14:28;;;;;;;;;;;9.70;90.20;;;;;;9180079;19;20021;-68
2022/02/01 16:17:34;;;;;;;16.90;2.65;;;9.70;90.20;;;;;;9171052;19;19918;-68
2022/02/01 16:20:39;;;;;;;24.13;3.40;;;9.70;90.20;;;;;;9176929;19;20409;-68
2022/02/01 16:23:46;;;;;;;22.52;3.42;;;9.70;90.20;;;;;;9172839;19;20018;-69
2022/02/01 16:26:51;;;;;;;16.35;3.17;;;9.70;90.10;;;;;;9167264;19;20025;-69
2022/02/01 16:30:08;;;;;;;17.67;3.30;;;9.70;90.10;;;;;;9169521;19;20019;-68
2022/02/01 16:33:14;;;;;;;16.77;2.70;;;9.70;90.10;;;;;;9169959;19;20488;-69
2022/02/01 16:36:23;;;;;;;22.42;3.15;;;9.70;90.10;;;;;;9168636;19;20025;-69
2022/02/01 16:39:30;;;;;;;17.95;3.30;;;9.70;90.10;;;;;;9170289;19;20015;-69
2022/02/01 16:42:39;;;;;;;18.50;3.05;;;9.60;90.10;;;;;;9169159;19;20030;-69
2022/02/01 16:45:52;;;;;;;16.77;3.58;;;9.70;90.10;;;;;;9170307;19;20360;-69
2022/02/01 16:49:12;;;;;;;17.75;2.92;;;9.60;90.00;;;;;;9171975;19;20025;-69
2022/02/01 16:52:23;;;;;;;18.35;3.22;;;9.60;90.00;;;;;;9170000;19;20106;-69
2022/02/01 16:55:34;;;;;;;19.80;3.42;;;9.60;90.00;;;;;;9167326;19;20492;-69
2022/02/01 16:58:45;;;;;;;19.92;4.00;;;9.60;90.00;;;;;;9169765;19;20025;-69
2022/02/01 17:01:50;;;;;;;17.60;3.17;;;9.60;90.00;;;;;;9168391;19;20026;-69
2022/02/01 17:04:57;;;;;;;23.75;4.30;;;9.60;90.20;;;;;;9171021;19;20698;-69
2022/02/01 17:08:02;;;;;;;13.73;3.38;;;9.60;90.00;;;;;;9167672;19;20479;-69
2022/02/01 17:11:20;;;;;;;25.15;3.90;;;9.60;89.90;;;;;;9172273;19;20029;-68
2022/02/01 17:17:59;;;;;;;22.40;3.78;;;9.60;89.90;;;;;;9173378;19;20022;-69
2022/02/01 17:24:23;;;;;;;25.23;3.83;;;9.60;89.80;;;;;;9178934;19;20023;-68
2022/02/01 17:27:31;;;;;;;17.95;3.50;;;9.60;89.80;;;;;;9174836;19;20018;-69
2022/02/01 17:30:36;;;;;;;20.50;4.47;;;9.60;89.80;;;;;;9174872;19;20439;-68
2022/02/01 17:33:43;;;;;;;20.20;3.10;;;9.60;89.80;;;;;;9176961;19;20139;-69
2022/02/01 17:36:48;;;;;;;21.15;3.70;;;9.50;89.70;;;;;;9177986;19;20018;-69
2022/02/01 17:39:54;;;;;;;21.88;4.35;;;9.50;89.70;;;;;;9180054;19;20022;-69
2022/02/01 17:43:02;;;;;;;26.70;3.60;;;9.50;89.70;;;;;;9175521;19;20023;-69
2022/02/01 17:46:07;;;;;;;22.00;3.45;;;9.50;89.60;;;;;;9178136;19;20018;-69
2022/02/01 17:49:17;;;;;;;22.02;3.67;;;9.50;89.60;;;;;;9180991;19;20026;-68
2022/02/01 17:52:33;;;;;;;18.17;3.70;;;9.50;89.60;;;;;;9179622;19;20601;-68
2022/02/01 17:55:38;;;;;;;21.88;3.35;;;9.50;89.60;;;;;;9182361;19;20039;-68
2022/02/01 17:58:46;;;;;;;20.75;3.03;;;9.50;89.70;;;;;;9182052;19;20003;-68
2022/02/01 18:01:51;;;;;;;20.95;3.72;;;9.50;89.50;;;;;;9179653;19;20364;-68
2022/02/01 18:04:56;;;;;;;25.38;3.78;;;9.50;89.50;;;;;;9179714;19;20006;-68
2022/02/01 18:08:04;;;;;;;18.50;3.70;;;9.50;89.50;;;;;;9179963;19;20052;-68
2022/02/01 18:11:12;;;;;;;27.67;3.80;;;9.50;89.40;;;;;;9181328;19;20085;-68
2022/02/01 18:14:23;;;;;;;21.20;5.03;;;9.50;89.50;;;;;;9183731;19;20011;-68
2022/02/01 18:17:29;;;;;;;21.02;5.32;;;9.50;89.40;;;;;;9175581;19;20022;-68
2022/02/01 18:20:34;;;;;;;21.60;3.78;;;9.50;89.40;;;;;;9178325;19;20023;-67
2022/02/01 18:23:40;;;;;;;19.65;3.83;;;9.50;89.40;;;;;;9171581;19;20854;-67